sensor_id;sensor_type;location;lat;lon;timestamp;P1;durP1;ratioP1;P2;durP2;ratioP2
34317;SDS011;20582;52.196;20.952;2022-08-16T00:01:01;25.95;;;18.67;;
34317;SDS011;20582;52.196;20.952;2022-08-16T00:03:27;23.77;;;18.55;;
34317;SDS011;20582;52.196;20.952;2022-08-16T00:05:53;21.77;;;17.83;;
34317;SDS011;20582;52.196;20.952;2022-08-16T00:08:19;21.63;;;18.30;;
34317;SDS011;20582;52.196;20.952;2022-08-16T00:10:45;22.23;;;19.83;;
34317;SDS011;20582;52.196;20.952;2022-08-16T00:13:11;23.48;;;18.50;;
34317;SDS011;20582;52.196;20.952;2022-08-16T00:15:38;22.38;;;18.48;;
34317;SDS011;20582;52.196;20.952;2022-08-16T00:18:05;27.38;;;18.10;;
34317;SDS011;20582;52.196;20.952;2022-08-16T00:20:32;21.48;;;18.92;;
34317;SDS011;20582;52.196;20.952;2022-08-16T00:22:58;25.20;;;18.77;;
34317;SDS011;20582;52.196;20.952;2022-08-16T00:25:24;22.55;;;18.27;;
34317;SDS011;20582;52.196;20.952;2022-08-16T00:27:51;20.92;;;18.27;;
34317;SDS011;20582;52.196;20.952;2022-08-16T00:30:17;25.10;;;19.15;;
34317;SDS011;20582;52.196;20.952;2022-08-16T00:32:44;22.75;;;18.80;;
34317;SDS011;20582;52.196;20.952;2022-08-16T00:35:13;21.00;;;18.17;;
34317;SDS011;20582;52.196;20.952;2022-08-16T00:37:40;21.48;;;18.08;;
34317;SDS011;20582;52.196;20.952;2022-08-16T00:40:06;23.50;;;17.05;;
34317;SDS011;20582;52.196;20.952;2022-08-16T00:42:33;21.00;;;18.17;;
34317;SDS011;20582;52.196;20.952;2022-08-16T00:45:00;23.27;;;18.27;;
34317;SDS011;20582;52.196;20.952;2022-08-16T00:47:26;22.35;;;17.88;;
34317;SDS011;20582;52.196;20.952;2022-08-16T00:49:53;23.40;;;19.15;;
34317;SDS011;20582;52.196;20.952;2022-08-16T00:52:19;22.05;;;18.50;;
34317;SDS011;20582;52.196;20.952;2022-08-16T00:54:45;22.25;;;19.27;;
34317;SDS011;20582;52.196;20.952;2022-08-16T00:57:11;23.15;;;19.20;;
34317;SDS011;20582;52.196;20.952;2022-08-16T00:59:38;22.65;;;18.52;;
34317;SDS011;20582;52.196;20.952;2022-08-16T01:02:06;25.90;;;19.33;;
34317;SDS011;20582;52.196;20.952;2022-08-16T01:04:33;21.65;;;18.65;;
34317;SDS011;20582;52.196;20.952;2022-08-16T01:07:00;26.05;;;19.27;;
34317;SDS011;20582;52.196;20.952;2022-08-16T01:09:27;21.70;;;18.55;;
34317;SDS011;20582;52.196;20.952;2022-08-16T01:11:53;24.33;;;18.75;;
34317;SDS011;20582;52.196;20.952;2022-08-16T01:14:22;23.10;;;18.80;;
34317;SDS011;20582;52.196;20.952;2022-08-16T01:16:48;21.92;;;19.55;;
34317;SDS011;20582;52.196;20.952;2022-08-16T01:19:32;25.80;;;19.00;;
34317;SDS011;20582;52.196;20.952;2022-08-16T01:22:00;22.55;;;18.67;;
34317;SDS011;20582;52.196;20.952;2022-08-16T01:24:44;24.58;;;18.92;;
34317;SDS011;20582;52.196;20.952;2022-08-16T01:27:16;23.73;;;19.70;;
34317;SDS011;20582;52.196;20.952;2022-08-16T01:29:45;22.70;;;18.80;;
34317;SDS011;20582;52.196;20.952;2022-08-16T01:32:12;22.27;;;19.75;;
34317;SDS011;20582;52.196;20.952;2022-08-16T01:34:38;23.55;;;18.75;;
34317;SDS011;20582;52.196;20.952;2022-08-16T01:37:05;21.58;;;18.42;;
34317;SDS011;20582;52.196;20.952;2022-08-16T01:39:32;24.60;;;18.77;;
34317;SDS011;20582;52.196;20.952;2022-08-16T01:41:59;22.85;;;18.80;;
34317;SDS011;20582;52.196;20.952;2022-08-16T01:44:26;22.02;;;19.63;;
34317;SDS011;20582;52.196;20.952;2022-08-16T01:46:52;24.52;;;19.63;;
34317;SDS011;20582;52.196;20.952;2022-08-16T01:49:25;24.48;;;18.70;;
34317;SDS011;20582;52.196;20.952;2022-08-16T01:51:59;25.77;;;19.10;;
34317;SDS011;20582;52.196;20.952;2022-08-16T01:54:26;20.70;;;17.50;;
34317;SDS011;20582;52.196;20.952;2022-08-16T01:56:52;23.35;;;17.77;;
34317;SDS011;20582;52.196;20.952;2022-08-16T01:59:18;24.30;;;18.17;;
34317;SDS011;20582;52.196;20.952;2022-08-16T02:01:46;23.40;;;18.40;;
34317;SDS011;20582;52.196;20.952;2022-08-16T02:04:12;21.17;;;18.45;;
34317;SDS011;20582;52.196;20.952;2022-08-16T02:06:39;24.05;;;19.08;;
34317;SDS011;20582;52.196;20.952;2022-08-16T02:09:06;22.67;;;18.88;;
34317;SDS011;20582;52.196;20.952;2022-08-16T02:11:32;24.67;;;18.60;;
34317;SDS011;20582;52.196;20.952;2022-08-16T02:13:59;22.75;;;17.92;;
34317;SDS011;20582;52.196;20.952;2022-08-16T02:16:25;20.48;;;18.20;;
34317;SDS011;20582;52.196;20.952;2022-08-16T02:18:51;28.02;;;20.40;;
34317;SDS011;20582;52.196;20.952;2022-08-16T02:21:17;22.80;;;19.20;;
34317;SDS011;20582;52.196;20.952;2022-08-16T02:23:44;22.85;;;17.80;;
34317;SDS011;20582;52.196;20.952;2022-08-16T02:26:10;24.70;;;18.85;;
34317;SDS011;20582;52.196;20.952;2022-08-16T02:28:36;22.88;;;19.00;;
34317;SDS011;20582;52.196;20.952;2022-08-16T02:31:05;22.33;;;18.35;;
34317;SDS011;20582;52.196;20.952;2022-08-16T02:33:32;21.00;;;17.80;;
34317;SDS011;20582;52.196;20.952;2022-08-16T02:35:58;23.92;;;18.00;;
34317;SDS011;20582;52.196;20.952;2022-08-16T02:38:25;24.42;;;18.95;;
34317;SDS011;20582;52.196;20.952;2022-08-16T02:40:51;21.70;;;18.25;;
34317;SDS011;20582;52.196;20.952;2022-08-16T02:43:17;19.73;;;17.15;;
34317;SDS011;20582;52.196;20.952;2022-08-16T02:45:43;21.73;;;18.02;;
34317;SDS011;20582;52.196;20.952;2022-08-16T02:48:09;22.38;;;18.27;;
34317;SDS011;20582;52.196;20.952;2022-08-16T02:50:35;21.27;;;17.95;;
34317;SDS011;20582;52.196;20.952;2022-08-16T02:53:02;20.75;;;17.75;;
34317;SDS011;20582;52.196;20.952;2022-08-16T02:55:28;22.38;;;18.15;;
34317;SDS011;20582;52.196;20.952;2022-08-16T02:57:54;19.48;;;17.20;;
34317;SDS011;20582;52.196;20.952;2022-08-16T03:00:20;19.58;;;17.48;;
34317;SDS011;20582;52.196;20.952;2022-08-16T03:02:46;21.42;;;17.17;;
34317;SDS011;20582;52.196;20.952;2022-08-16T03:05:13;21.35;;;18.02;;
34317;SDS011;20582;52.196;20.952;2022-08-16T03:07:39;20.77;;;17.98;;
34317;SDS011;20582;52.196;20.952;2022-08-16T03:10:06;21.75;;;18.02;;
34317;SDS011;20582;52.196;20.952;2022-08-16T03:12:33;20.92;;;16.95;;
34317;SDS011;20582;52.196;20.952;2022-08-16T03:14:59;21.20;;;17.25;;
34317;SDS011;20582;52.196;20.952;2022-08-16T03:17:25;23.35;;;17.55;;
34317;SDS011;20582;52.196;20.952;2022-08-16T03:19:51;23.90;;;19.15;;
34317;SDS011;20582;52.196;20.952;2022-08-16T03:22:18;23.15;;;17.60;;
34317;SDS011;20582;52.196;20.952;2022-08-16T03:24:45;20.83;;;17.95;;
34317;SDS011;20582;52.196;20.952;2022-08-16T03:27:11;23.75;;;18.42;;
34317;SDS011;20582;52.196;20.952;2022-08-16T03:29:37;21.55;;;17.90;;
34317;SDS011;20582;52.196;20.952;2022-08-16T03:32:03;21.80;;;18.48;;
34317;SDS011;20582;52.196;20.952;2022-08-16T03:34:29;25.17;;;18.92;;
34317;SDS011;20582;52.196;20.952;2022-08-16T03:36:57;23.30;;;18.92;;
34317;SDS011;20582;52.196;20.952;2022-08-16T03:39:24;23.23;;;19.35;;
34317;SDS011;20582;52.196;20.952;2022-08-16T03:41:51;24.75;;;20.23;;
34317;SDS011;20582;52.196;20.952;2022-08-16T03:44:17;23.73;;;18.42;;
34317;SDS011;20582;52.196;20.952;2022-08-16T03:46:44;21.58;;;18.05;;
34317;SDS011;20582;52.196;20.952;2022-08-16T03:49:10;21.67;;;18.52;;
34317;SDS011;20582;52.196;20.952;2022-08-16T03:51:37;23.00;;;17.90;;
34317;SDS011;20582;52.196;20.952;2022-08-16T03:54:03;22.80;;;18.65;;
34317;SDS011;20582;52.196;20.952;2022-08-16T03:56:29;19.83;;;17.67;;
34317;SDS011;20582;52.196;20.952;2022-08-16T03:58:55;23.17;;;18.63;;
34317;SDS011;20582;52.196;20.952;2022-08-16T04:01:22;21.38;;;17.23;;
34317;SDS011;20582;52.196;20.952;2022-08-16T04:03:52;21.38;;;17.50;;
34317;SDS011;20582;52.196;20.952;2022-08-16T04:06:18;23.25;;;18.90;;
34317;SDS011;20582;52.196;20.952;2022-08-16T04:08:45;22.50;;;18.88;;
34317;SDS011;20582;52.196;20.952;2022-08-16T04:11:12;21.55;;;18.30;;
34317;SDS011;20582;52.196;20.952;2022-08-16T04:13:38;24.38;;;18.02;;
34317;SDS011;20582;52.196;20.952;2022-08-16T04:16:04;21.85;;;17.25;;
34317;SDS011;20582;52.196;20.952;2022-08-16T04:18:30;25.25;;;18.48;;
34317;SDS011;20582;52.196;20.952;2022-08-16T04:20:56;25.38;;;19.30;;
34317;SDS011;20582;52.196;20.952;2022-08-16T04:23:22;25.77;;;17.92;;
34317;SDS011;20582;52.196;20.952;2022-08-16T04:25:48;24.95;;;18.13;;
34317;SDS011;20582;52.196;20.952;2022-08-16T04:28:15;20.70;;;17.45;;
34317;SDS011;20582;52.196;20.952;2022-08-16T04:30:41;23.77;;;17.75;;
34317;SDS011;20582;52.196;20.952;2022-08-16T04:33:07;26.40;;;18.65;;
34317;SDS011;20582;52.196;20.952;2022-08-16T04:35:34;24.17;;;18.50;;
34317;SDS011;20582;52.196;20.952;2022-08-16T04:38:00;20.80;;;17.42;;
34317;SDS011;20582;52.196;20.952;2022-08-16T04:40:26;25.00;;;18.23;;
34317;SDS011;20582;52.196;20.952;2022-08-16T04:42:52;25.63;;;17.98;;
34317;SDS011;20582;52.196;20.952;2022-08-16T04:45:18;24.10;;;17.75;;
34317;SDS011;20582;52.196;20.952;2022-08-16T04:47:45;23.48;;;17.70;;
34317;SDS011;20582;52.196;20.952;2022-08-16T04:50:15;22.10;;;18.05;;
34317;SDS011;20582;52.196;20.952;2022-08-16T04:52:45;22.60;;;17.73;;
34317;SDS011;20582;52.196;20.952;2022-08-16T04:55:13;20.45;;;17.40;;
34317;SDS011;20582;52.196;20.952;2022-08-16T04:57:39;20.67;;;17.30;;
34317;SDS011;20582;52.196;20.952;2022-08-16T05:00:06;21.60;;;17.52;;
34317;SDS011;20582;52.196;20.952;2022-08-16T05:02:34;19.48;;;17.05;;
34317;SDS011;20582;52.196;20.952;2022-08-16T05:05:00;18.70;;;16.13;;
34317;SDS011;20582;52.196;20.952;2022-08-16T05:07:26;23.33;;;17.73;;
34317;SDS011;20582;52.196;20.952;2022-08-16T05:09:52;18.48;;;16.35;;
34317;SDS011;20582;52.196;20.952;2022-08-16T05:12:18;19.55;;;16.40;;
34317;SDS011;20582;52.196;20.952;2022-08-16T05:14:44;22.52;;;15.75;;
34317;SDS011;20582;52.196;20.952;2022-08-16T05:17:10;21.40;;;15.88;;
34317;SDS011;20582;52.196;20.952;2022-08-16T05:19:36;23.42;;;16.33;;
34317;SDS011;20582;52.196;20.952;2022-08-16T05:22:02;19.77;;;16.08;;
34317;SDS011;20582;52.196;20.952;2022-08-16T05:24:28;22.70;;;15.90;;
34317;SDS011;20582;52.196;20.952;2022-08-16T05:26:55;19.02;;;16.25;;
34317;SDS011;20582;52.196;20.952;2022-08-16T05:29:21;19.13;;;15.52;;
34317;SDS011;20582;52.196;20.952;2022-08-16T05:31:47;19.15;;;14.73;;
34317;SDS011;20582;52.196;20.952;2022-08-16T05:34:13;19.75;;;15.27;;
34317;SDS011;20582;52.196;20.952;2022-08-16T05:36:39;21.98;;;15.05;;
34317;SDS011;20582;52.196;20.952;2022-08-16T05:39:06;17.10;;;14.95;;
34317;SDS011;20582;52.196;20.952;2022-08-16T05:41:33;20.95;;;14.70;;
34317;SDS011;20582;52.196;20.952;2022-08-16T05:43:59;19.98;;;15.15;;
34317;SDS011;20582;52.196;20.952;2022-08-16T05:46:25;16.13;;;14.27;;
34317;SDS011;20582;52.196;20.952;2022-08-16T05:48:51;20.27;;;14.95;;
34317;SDS011;20582;52.196;20.952;2022-08-16T05:51:17;18.42;;;14.90;;
34317;SDS011;20582;52.196;20.952;2022-08-16T05:53:43;20.40;;;14.32;;
34317;SDS011;20582;52.196;20.952;2022-08-16T05:56:09;19.65;;;14.93;;
34317;SDS011;20582;52.196;20.952;2022-08-16T05:58:35;21.38;;;16.08;;
34317;SDS011;20582;52.196;20.952;2022-08-16T06:01:02;21.52;;;14.70;;
34317;SDS011;20582;52.196;20.952;2022-08-16T06:03:29;18.17;;;15.43;;
34317;SDS011;20582;52.196;20.952;2022-08-16T06:05:55;20.75;;;14.70;;
34317;SDS011;20582;52.196;20.952;2022-08-16T06:08:22;20.45;;;13.88;;
34317;SDS011;20582;52.196;20.952;2022-08-16T06:10:49;21.25;;;14.73;;
34317;SDS011;20582;52.196;20.952;2022-08-16T06:13:15;20.70;;;14.60;;
34317;SDS011;20582;52.196;20.952;2022-08-16T06:15:41;20.10;;;14.88;;
34317;SDS011;20582;52.196;20.952;2022-08-16T06:18:07;17.40;;;14.48;;
34317;SDS011;20582;52.196;20.952;2022-08-16T06:20:33;17.13;;;14.73;;
34317;SDS011;20582;52.196;20.952;2022-08-16T06:22:59;19.75;;;14.18;;
34317;SDS011;20582;52.196;20.952;2022-08-16T06:25:26;18.00;;;14.38;;
34317;SDS011;20582;52.196;20.952;2022-08-16T06:27:52;19.10;;;14.25;;
34317;SDS011;20582;52.196;20.952;2022-08-16T06:30:20;20.90;;;14.05;;
34317;SDS011;20582;52.196;20.952;2022-08-16T06:32:46;20.13;;;14.55;;
34317;SDS011;20582;52.196;20.952;2022-08-16T06:35:13;18.25;;;15.20;;
34317;SDS011;20582;52.196;20.952;2022-08-16T06:37:39;21.63;;;15.05;;
34317;SDS011;20582;52.196;20.952;2022-08-16T06:40:06;18.10;;;13.57;;
34317;SDS011;20582;52.196;20.952;2022-08-16T06:42:32;21.55;;;14.48;;
34317;SDS011;20582;52.196;20.952;2022-08-16T06:44:58;19.02;;;14.32;;
34317;SDS011;20582;52.196;20.952;2022-08-16T06:47:24;19.23;;;13.77;;
34317;SDS011;20582;52.196;20.952;2022-08-16T06:49:50;18.60;;;14.52;;
34317;SDS011;20582;52.196;20.952;2022-08-16T06:52:16;19.95;;;14.20;;
34317;SDS011;20582;52.196;20.952;2022-08-16T06:54:43;19.48;;;13.90;;
34317;SDS011;20582;52.196;20.952;2022-08-16T06:57:09;18.48;;;13.20;;
34317;SDS011;20582;52.196;20.952;2022-08-16T06:59:36;18.40;;;14.45;;
34317;SDS011;20582;52.196;20.952;2022-08-16T07:02:02;18.77;;;14.10;;
34317;SDS011;20582;52.196;20.952;2022-08-16T07:04:28;18.85;;;13.52;;
34317;SDS011;20582;52.196;20.952;2022-08-16T07:06:55;17.52;;;13.52;;
34317;SDS011;20582;52.196;20.952;2022-08-16T07:09:21;20.98;;;14.25;;
34317;SDS011;20582;52.196;20.952;2022-08-16T07:11:47;19.75;;;13.15;;
34317;SDS011;20582;52.196;20.952;2022-08-16T07:14:13;19.40;;;13.73;;
34317;SDS011;20582;52.196;20.952;2022-08-16T07:16:39;23.73;;;14.25;;
34317;SDS011;20582;52.196;20.952;2022-08-16T07:19:08;18.42;;;13.35;;
34317;SDS011;20582;52.196;20.952;2022-08-16T07:21:34;20.98;;;13.18;;
34317;SDS011;20582;52.196;20.952;2022-08-16T07:24:01;19.08;;;13.30;;
34317;SDS011;20582;52.196;20.952;2022-08-16T07:26:27;17.83;;;13.50;;
34317;SDS011;20582;52.196;20.952;2022-08-16T07:28:53;20.42;;;13.52;;
34317;SDS011;20582;52.196;20.952;2022-08-16T07:31:20;17.30;;;12.95;;
34317;SDS011;20582;52.196;20.952;2022-08-16T07:33:46;16.30;;;14.05;;
34317;SDS011;20582;52.196;20.952;2022-08-16T07:36:12;22.17;;;13.43;;
34317;SDS011;20582;52.196;20.952;2022-08-16T07:38:38;24.60;;;13.05;;
34317;SDS011;20582;52.196;20.952;2022-08-16T07:41:05;21.63;;;14.00;;
34317;SDS011;20582;52.196;20.952;2022-08-16T07:43:31;17.65;;;13.10;;
34317;SDS011;20582;52.196;20.952;2022-08-16T07:45:57;20.55;;;12.95;;
34317;SDS011;20582;52.196;20.952;2022-08-16T07:48:23;18.48;;;12.65;;
34317;SDS011;20582;52.196;20.952;2022-08-16T07:50:50;16.38;;;12.27;;
34317;SDS011;20582;52.196;20.952;2022-08-16T07:53:17;17.27;;;12.43;;
34317;SDS011;20582;52.196;20.952;2022-08-16T07:55:43;24.15;;;13.20;;
34317;SDS011;20582;52.196;20.952;2022-08-16T07:58:09;22.52;;;13.63;;
34317;SDS011;20582;52.196;20.952;2022-08-16T08:00:35;19.73;;;13.05;;
34317;SDS011;20582;52.196;20.952;2022-08-16T08:03:02;19.13;;;13.55;;
34317;SDS011;20582;52.196;20.952;2022-08-16T08:05:28;19.45;;;12.23;;
34317;SDS011;20582;52.196;20.952;2022-08-16T08:07:54;16.92;;;12.43;;
34317;SDS011;20582;52.196;20.952;2022-08-16T08:10:21;17.80;;;12.50;;
34317;SDS011;20582;52.196;20.952;2022-08-16T08:12:48;20.98;;;12.50;;
34317;SDS011;20582;52.196;20.952;2022-08-16T08:15:14;21.23;;;12.68;;
34317;SDS011;20582;52.196;20.952;2022-08-16T08:17:40;21.80;;;13.45;;
34317;SDS011;20582;52.196;20.952;2022-08-16T08:20:07;21.30;;;12.15;;
34317;SDS011;20582;52.196;20.952;2022-08-16T08:22:34;21.25;;;11.40;;
34317;SDS011;20582;52.196;20.952;2022-08-16T08:25:01;15.52;;;11.70;;
34317;SDS011;20582;52.196;20.952;2022-08-16T08:27:28;17.10;;;11.82;;
34317;SDS011;20582;52.196;20.952;2022-08-16T08:29:54;17.52;;;11.50;;
34317;SDS011;20582;52.196;20.952;2022-08-16T08:32:20;18.30;;;11.60;;
34317;SDS011;20582;52.196;20.952;2022-08-16T08:34:46;18.40;;;11.73;;
34317;SDS011;20582;52.196;20.952;2022-08-16T08:37:12;18.20;;;11.25;;
34317;SDS011;20582;52.196;20.952;2022-08-16T08:39:39;17.05;;;10.80;;
34317;SDS011;20582;52.196;20.952;2022-08-16T08:42:05;16.08;;;11.02;;
34317;SDS011;20582;52.196;20.952;2022-08-16T08:44:32;17.70;;;10.77;;
34317;SDS011;20582;52.196;20.952;2022-08-16T08:46:59;17.52;;;10.35;;
34317;SDS011;20582;52.196;20.952;2022-08-16T08:49:26;17.08;;;10.90;;
34317;SDS011;20582;52.196;20.952;2022-08-16T08:51:52;16.55;;;10.77;;
34317;SDS011;20582;52.196;20.952;2022-08-16T08:54:18;17.70;;;10.55;;
34317;SDS011;20582;52.196;20.952;2022-08-16T08:56:44;16.98;;;10.90;;
34317;SDS011;20582;52.196;20.952;2022-08-16T08:59:10;17.73;;;9.27;;
34317;SDS011;20582;52.196;20.952;2022-08-16T09:01:37;16.23;;;9.25;;
34317;SDS011;20582;52.196;20.952;2022-08-16T09:04:04;12.80;;;8.70;;
34317;SDS011;20582;52.196;20.952;2022-08-16T09:06:31;14.68;;;9.27;;
34317;SDS011;20582;52.196;20.952;2022-08-16T09:08:57;18.60;;;9.93;;
34317;SDS011;20582;52.196;20.952;2022-08-16T09:11:24;14.40;;;9.65;;
34317;SDS011;20582;52.196;20.952;2022-08-16T09:13:50;11.73;;;9.15;;
34317;SDS011;20582;52.196;20.952;2022-08-16T09:16:16;12.57;;;10.55;;
34317;SDS011;20582;52.196;20.952;2022-08-16T09:18:43;16.90;;;11.18;;
34317;SDS011;20582;52.196;20.952;2022-08-16T09:21:09;13.90;;;10.13;;
34317;SDS011;20582;52.196;20.952;2022-08-16T09:23:36;17.48;;;11.30;;
34317;SDS011;20582;52.196;20.952;2022-08-16T09:26:11;14.18;;;10.69;;
34317;SDS011;20582;52.196;20.952;2022-08-16T09:28:39;13.40;;;10.80;;
34317;SDS011;20582;52.196;20.952;2022-08-16T09:31:06;14.55;;;10.63;;
34317;SDS011;20582;52.196;20.952;2022-08-16T09:33:32;15.98;;;10.40;;
34317;SDS011;20582;52.196;20.952;2022-08-16T09:35:59;15.32;;;10.57;;
34317;SDS011;20582;52.196;20.952;2022-08-16T09:38:25;14.95;;;11.05;;
34317;SDS011;20582;52.196;20.952;2022-08-16T09:40:51;14.73;;;10.57;;
34317;SDS011;20582;52.196;20.952;2022-08-16T09:43:19;14.60;;;10.20;;
34317;SDS011;20582;52.196;20.952;2022-08-16T09:45:45;13.20;;;10.40;;
34317;SDS011;20582;52.196;20.952;2022-08-16T09:48:12;14.38;;;9.80;;
34317;SDS011;20582;52.196;20.952;2022-08-16T09:50:38;15.55;;;9.25;;
34317;SDS011;20582;52.196;20.952;2022-08-16T09:53:13;14.35;;;9.07;;
34317;SDS011;20582;52.196;20.952;2022-08-16T09:55:39;12.27;;;8.13;;
34317;SDS011;20582;52.196;20.952;2022-08-16T09:58:05;14.02;;;7.88;;
34317;SDS011;20582;52.196;20.952;2022-08-16T10:00:31;13.02;;;7.82;;
34317;SDS011;20582;52.196;20.952;2022-08-16T10:02:57;16.05;;;8.30;;
34317;SDS011;20582;52.196;20.952;2022-08-16T10:05:23;13.57;;;9.05;;
34317;SDS011;20582;52.196;20.952;2022-08-16T10:07:50;13.73;;;9.02;;
34317;SDS011;20582;52.196;20.952;2022-08-16T10:10:17;17.08;;;9.38;;
34317;SDS011;20582;52.196;20.952;2022-08-16T10:12:44;13.18;;;9.23;;
34317;SDS011;20582;52.196;20.952;2022-08-16T10:15:28;14.38;;;9.05;;
34317;SDS011;20582;52.196;20.952;2022-08-16T10:17:54;15.57;;;9.73;;
34317;SDS011;20582;52.196;20.952;2022-08-16T10:20:21;17.95;;;10.43;;
34317;SDS011;20582;52.196;20.952;2022-08-16T10:22:49;18.77;;;10.25;;
34317;SDS011;20582;52.196;20.952;2022-08-16T10:25:16;16.90;;;10.45;;
34317;SDS011;20582;52.196;20.952;2022-08-16T10:27:44;17.58;;;10.57;;
34317;SDS011;20582;52.196;20.952;2022-08-16T10:30:11;17.00;;;11.10;;
34317;SDS011;20582;52.196;20.952;2022-08-16T10:32:37;14.20;;;10.70;;
34317;SDS011;20582;52.196;20.952;2022-08-16T10:35:03;17.67;;;11.43;;
34317;SDS011;20582;52.196;20.952;2022-08-16T10:37:29;16.63;;;10.38;;
34317;SDS011;20582;52.196;20.952;2022-08-16T10:39:55;14.00;;;10.05;;
34317;SDS011;20582;52.196;20.952;2022-08-16T10:42:21;14.73;;;10.77;;
34317;SDS011;20582;52.196;20.952;2022-08-16T10:44:48;14.93;;;11.30;;
34317;SDS011;20582;52.196;20.952;2022-08-16T10:47:14;17.33;;;11.73;;
34317;SDS011;20582;52.196;20.952;2022-08-16T10:49:40;14.32;;;11.30;;
34317;SDS011;20582;52.196;20.952;2022-08-16T10:52:06;14.57;;;10.98;;
34317;SDS011;20582;52.196;20.952;2022-08-16T10:54:32;18.52;;;10.95;;
34317;SDS011;20582;52.196;20.952;2022-08-16T10:56:59;13.55;;;10.20;;
34317;SDS011;20582;52.196;20.952;2022-08-16T10:59:26;13.27;;;10.45;;
34317;SDS011;20582;52.196;20.952;2022-08-16T11:01:52;14.98;;;10.82;;
34317;SDS011;20582;52.196;20.952;2022-08-16T11:04:18;11.30;;;9.57;;
34317;SDS011;20582;52.196;20.952;2022-08-16T11:06:44;19.27;;;9.88;;
34317;SDS011;20582;52.196;20.952;2022-08-16T11:09:10;15.43;;;9.95;;
34317;SDS011;20582;52.196;20.952;2022-08-16T11:11:36;21.63;;;9.98;;
34317;SDS011;20582;52.196;20.952;2022-08-16T11:14:02;16.48;;;10.43;;
34317;SDS011;20582;52.196;20.952;2022-08-16T11:16:28;13.82;;;9.65;;
34317;SDS011;20582;52.196;20.952;2022-08-16T11:18:54;16.55;;;10.48;;
34317;SDS011;20582;52.196;20.952;2022-08-16T11:21:21;16.80;;;10.45;;
34317;SDS011;20582;52.196;20.952;2022-08-16T11:23:49;13.27;;;9.63;;
34317;SDS011;20582;52.196;20.952;2022-08-16T11:26:16;19.42;;;10.50;;
34317;SDS011;20582;52.196;20.952;2022-08-16T11:28:42;18.02;;;9.75;;
34317;SDS011;20582;52.196;20.952;2022-08-16T11:31:08;13.55;;;10.00;;
34317;SDS011;20582;52.196;20.952;2022-08-16T11:33:34;14.52;;;9.55;;
34317;SDS011;20582;52.196;20.952;2022-08-16T11:36:01;15.18;;;10.20;;
34317;SDS011;20582;52.196;20.952;2022-08-16T11:38:27;15.27;;;10.55;;
34317;SDS011;20582;52.196;20.952;2022-08-16T11:40:55;14.38;;;10.77;;
34317;SDS011;20582;52.196;20.952;2022-08-16T11:43:31;13.88;;;10.73;;
34317;SDS011;20582;52.196;20.952;2022-08-16T11:45:59;15.15;;;10.57;;
34317;SDS011;20582;52.196;20.952;2022-08-16T11:48:26;18.33;;;10.82;;
34317;SDS011;20582;52.196;20.952;2022-08-16T11:50:52;18.33;;;11.55;;
34317;SDS011;20582;52.196;20.952;2022-08-16T11:53:19;15.10;;;11.00;;
34317;SDS011;20582;52.196;20.952;2022-08-16T11:55:45;16.23;;;11.38;;
34317;SDS011;20582;52.196;20.952;2022-08-16T11:58:12;16.30;;;11.52;;
34317;SDS011;20582;52.196;20.952;2022-08-16T12:00:39;14.75;;;11.52;;
34317;SDS011;20582;52.196;20.952;2022-08-16T12:03:06;16.40;;;11.82;;
34317;SDS011;20582;52.196;20.952;2022-08-16T12:05:32;19.23;;;12.50;;
34317;SDS011;20582;52.196;20.952;2022-08-16T12:07:58;14.40;;;11.73;;
34317;SDS011;20582;52.196;20.952;2022-08-16T12:10:25;17.48;;;12.30;;
34317;SDS011;20582;52.196;20.952;2022-08-16T12:12:51;17.73;;;12.32;;
34317;SDS011;20582;52.196;20.952;2022-08-16T12:15:17;24.10;;;12.63;;
34317;SDS011;20582;52.196;20.952;2022-08-16T12:17:43;19.15;;;12.27;;
34317;SDS011;20582;52.196;20.952;2022-08-16T12:20:14;16.20;;;11.43;;
34317;SDS011;20582;52.196;20.952;2022-08-16T12:22:41;19.38;;;11.98;;
34317;SDS011;20582;52.196;20.952;2022-08-16T12:25:09;16.02;;;11.05;;
34317;SDS011;20582;52.196;20.952;2022-08-16T12:27:35;19.08;;;11.65;;
34317;SDS011;20582;52.196;20.952;2022-08-16T12:30:02;18.20;;;11.32;;
34317;SDS011;20582;52.196;20.952;2022-08-16T12:32:29;18.67;;;12.02;;
34317;SDS011;20582;52.196;20.952;2022-08-16T12:34:55;14.68;;;11.05;;
34317;SDS011;20582;52.196;20.952;2022-08-16T12:37:21;15.40;;;12.00;;
34317;SDS011;20582;52.196;20.952;2022-08-16T12:39:48;16.65;;;11.80;;
34317;SDS011;20582;52.196;20.952;2022-08-16T12:42:14;18.92;;;11.05;;
34317;SDS011;20582;52.196;20.952;2022-08-16T12:44:43;16.35;;;11.60;;
34317;SDS011;20582;52.196;20.952;2022-08-16T12:47:09;18.25;;;11.80;;
34317;SDS011;20582;52.196;20.952;2022-08-16T12:49:55;18.55;;;12.48;;
34317;SDS011;20582;52.196;20.952;2022-08-16T12:52:21;19.63;;;11.55;;
34317;SDS011;20582;52.196;20.952;2022-08-16T12:54:47;14.52;;;11.45;;
34317;SDS011;20582;52.196;20.952;2022-08-16T12:57:13;18.05;;;11.07;;
34317;SDS011;20582;52.196;20.952;2022-08-16T12:59:39;18.23;;;12.02;;
34317;SDS011;20582;52.196;20.952;2022-08-16T13:02:06;18.63;;;11.43;;
34317;SDS011;20582;52.196;20.952;2022-08-16T13:04:33;16.95;;;11.85;;
34317;SDS011;20582;52.196;20.952;2022-08-16T13:07:00;17.00;;;11.50;;
34317;SDS011;20582;52.196;20.952;2022-08-16T13:09:26;18.00;;;12.50;;
34317;SDS011;20582;52.196;20.952;2022-08-16T13:14:25;18.35;;;13.82;;
34317;SDS011;20582;52.196;20.952;2022-08-16T13:16:51;16.60;;;13.52;;
34317;SDS011;20582;52.196;20.952;2022-08-16T13:19:17;23.40;;;13.88;;
34317;SDS011;20582;52.196;20.952;2022-08-16T13:21:43;19.85;;;13.32;;
34317;SDS011;20582;52.196;20.952;2022-08-16T13:24:09;48.03;;;17.58;;
34317;SDS011;20582;52.196;20.952;2022-08-16T13:26:35;17.88;;;12.10;;
34317;SDS011;20582;52.196;20.952;2022-08-16T13:29:01;20.10;;;13.23;;
34317;SDS011;20582;52.196;20.952;2022-08-16T13:31:27;19.67;;;13.18;;
34317;SDS011;20582;52.196;20.952;2022-08-16T13:33:53;18.80;;;12.90;;
34317;SDS011;20582;52.196;20.952;2022-08-16T13:36:19;20.08;;;12.73;;
34317;SDS011;20582;52.196;20.952;2022-08-16T13:38:45;17.45;;;11.88;;
34317;SDS011;20582;52.196;20.952;2022-08-16T13:41:11;17.60;;;10.60;;
34317;SDS011;20582;52.196;20.952;2022-08-16T13:43:38;13.10;;;10.07;;
34317;SDS011;20582;52.196;20.952;2022-08-16T13:46:05;13.13;;;9.43;;
34317;SDS011;20582;52.196;20.952;2022-08-16T13:48:32;14.45;;;9.23;;
34317;SDS011;20582;52.196;20.952;2022-08-16T13:50:58;13.73;;;7.20;;
34317;SDS011;20582;52.196;20.952;2022-08-16T13:53:24;13.38;;;7.90;;
34317;SDS011;20582;52.196;20.952;2022-08-16T13:55:52;12.55;;;7.07;;
34317;SDS011;20582;52.196;20.952;2022-08-16T13:58:18;14.88;;;6.90;;
34317;SDS011;20582;52.196;20.952;2022-08-16T14:00:45;16.35;;;7.03;;
34317;SDS011;20582;52.196;20.952;2022-08-16T14:03:11;14.90;;;6.25;;
34317;SDS011;20582;52.196;20.952;2022-08-16T14:05:37;14.02;;;6.32;;
34317;SDS011;20582;52.196;20.952;2022-08-16T14:08:03;12.35;;;5.95;;
34317;SDS011;20582;52.196;20.952;2022-08-16T14:10:29;13.23;;;6.40;;